Time;durP1;ratioP1;P1;durP2;ratioP2;P2;SDS_P1;SDS_P2;PMS_P1;PMS_P2;Temp;Humidity;BMP_temperature;BMP_pressure;BME280_temperature;BME280_humidity;BME280_pressure;Samples;Min_cycle;Max_cycle;Signal;HPM_P1;HPM_P2
2023/04/06 00:02:20;;;;;;;18.60;9.70;;;;;;;;;;5008238;28;20037;-57
2023/04/06 00:04:46;;;;;;;18.35;9.88;;;;;;;;;;5003673;28;20476;-56
2023/04/06 00:07:12;;;;;;;16.00;9.55;;;;;;;;;;5009517;28;20038;-57
2023/04/06 00:09:39;;;;;;;17.23;10.18;;;;;;;;;;5008157;28;20065;-56
2023/04/06 00:12:05;;;;;;;16.05;10.32;;;;;;;;;;5009525;28;20042;-57
2023/04/06 00:14:31;;;;;;;17.35;9.30;;;;;;;;;;5008407;28;20037;-57
2023/04/06 00:16:57;;;;;;;17.02;8.85;;;;;;;;;;5009418;28;20034;-57
2023/04/06 00:19:24;;;;;;;15.77;9.25;;;;;;;;;;5008281;28;20399;-56
2023/04/06 00:21:50;;;;;;;19.85;9.88;;;;;;;;;;5009082;28;20510;-57
2023/04/06 00:24:16;;;;;;;20.45;10.18;;;;;;;;;;5008466;28;20054;-57
2023/04/06 00:26:42;;;;;;;16.02;9.45;;;;;;;;;;5012680;28;20045;-56
2023/04/06 00:29:09;;;;;;;15.57;9.23;;;;;;;;;;5010504;28;20400;-57
2023/04/06 00:31:35;;;;;;;19.95;10.55;;;;;;;;;;5012776;28;20049;-57
2023/04/06 00:34:01;;;;;;;18.13;10.32;;;;;;;;;;5011505;28;20050;-57
2023/04/06 00:36:27;;;;;;;20.58;11.20;;;;;;;;;;5013390;28;20088;-58
2023/04/06 00:38:54;;;;;;;20.05;10.23;;;;;;;;;;5011719;28;20052;-58
2023/04/06 00:41:20;;;;;;;16.30;10.27;;;;;;;;;;5012319;28;20041;-57
2023/04/06 00:43:47;;;;;;;20.60;10.85;;;;;;;;;;5009903;28;20324;-57
2023/04/06 00:46:13;;;;;;;18.48;10.02;;;;;;;;;;5009377;28;20029;-57
2023/04/06 00:48:40;;;;;;;18.17;10.30;;;;;;;;;;5013020;28;20037;-57
2023/04/06 00:51:06;;;;;;;22.23;10.80;;;;;;;;;;5012469;28;20049;-57
2023/04/06 00:53:33;;;;;;;17.27;9.88;;;;;;;;;;5008775;28;20045;-56
2023/04/06 00:56:01;;;;;;;19.85;9.88;;;;;;;;;;5012330;28;20415;-57
2023/04/06 00:58:28;;;;;;;17.55;9.85;;;;;;;;;;5010668;28;20041;-56
2023/04/06 01:01:02;;;;;;;16.17;9.15;;;;;;;;;;5010652;28;20038;-58
2023/04/06 01:03:28;;;;;;;16.63;9.10;;;;;;;;;;5011220;28;20096;-57
2023/04/06 01:05:57;;;;;;;16.17;9.85;;;;;;;;;;5011462;28;20046;-57
2023/04/06 01:08:28;;;;;;;16.08;9.27;;;;;;;;;;5012185;28;20040;-58
2023/04/06 01:11:07;;;;;;;19.05;9.52;;;;;;;;;;5009954;28;20038;-58
2023/04/06 01:13:34;;;;;;;15.88;9.38;;;;;;;;;;5011778;28;20049;-57
2023/04/06 01:16:04;;;;;;;16.70;9.43;;;;;;;;;;5006290;28;20045;-57
2023/04/06 01:19:10;;;;;;;17.05;8.68;;;;;;;;;;5011088;28;20041;-57
2023/04/06 01:21:37;;;;;;;19.02;9.70;;;;;;;;;;5011073;28;20033;-57
2023/04/06 01:24:27;;;;;;;18.80;9.13;;;;;;;;;;4997965;28;20108;-57
2023/04/06 01:27:13;;;;;;;17.80;9.07;;;;;;;;;;5007098;28;20041;-57
2023/04/06 01:29:58;;;;;;;19.50;9.60;;;;;;;;;;5011755;28;20041;-55
2023/04/06 01:32:49;;;;;;;16.77;9.45;;;;;;;;;;5011271;28;20030;-57
2023/04/06 01:35:21;;;;;;;14.73;8.38;;;;;;;;;;5009702;28;20034;-54
2023/04/06 01:37:58;;;;;;;17.27;8.57;;;;;;;;;;4992636;28;20689;-56
2023/04/06 01:40:30;;;;;;;16.40;8.80;;;;;;;;;;5009673;28;20488;-56
2023/04/06 01:42:56;;;;;;;18.17;9.10;;;;;;;;;;5008240;28;20042;-57
2023/04/06 01:45:30;;;;;;;18.08;9.50;;;;;;;;;;5007546;28;20040;-56
2023/04/06 01:48:04;;;;;;;16.42;8.93;;;;;;;;;;5008036;28;20109;-57
2023/04/06 01:50:30;;;;;;;16.73;8.95;;;;;;;;;;5010699;28;20046;-57
2023/04/06 01:52:56;;;;;;;17.77;9.10;;;;;;;;;;5009004;28;20061;-57
2023/04/06 01:55:25;;;;;;;21.23;9.80;;;;;;;;;;5007835;28;20061;-58
2023/04/06 01:58:14;;;;;;;17.50;10.50;;;;;;;;;;5010317;28;20042;-57
2023/04/06 02:00:40;;;;;;;18.83;11.07;;;;;;;;;;5009751;28;20407;-58
2023/04/06 02:03:07;;;;;;;23.52;11.55;;;;;;;;;;5010628;28;20033;-57
2023/04/06 02:05:37;;;;;;;21.90;11.95;;;;;;;;;;5009796;28;20151;-57
2023/04/06 02:08:08;;;;;;;24.55;12.98;;;;;;;;;;4991966;28;20037;-56
2023/04/06 02:10:37;;;;;;;;;;;;;;;;;;4992293;28;20531;-58
2023/04/06 02:13:12;;;;;;;21.20;11.52;;;;;;;;;;5008906;28;19914;-57
2023/04/06 02:15:41;;;;;;;21.97;12.50;;;;;;;;;;5008910;28;20041;-57
2023/04/06 02:18:07;;;;;;;20.38;12.13;;;;;;;;;;5009282;28;20032;-57
2023/04/06 02:20:33;;;;;;;25.58;13.13;;;;;;;;;;5009580;28;20046;-57
2023/04/06 02:23:00;;;;;;;20.60;12.02;;;;;;;;;;5010471;28;20057;-58
2023/04/06 02:25:26;;;;;;;24.05;12.43;;;;;;;;;;5010842;28;20040;-57
2023/04/06 02:27:52;;;;;;;24.38;12.48;;;;;;;;;;4992482;28;20396;-57
2023/04/06 02:30:19;;;;;;;20.55;11.95;;;;;;;;;;5008797;28;20044;-56
2023/04/06 02:32:45;;;;;;;21.30;11.63;;;;;;;;;;5009021;28;20042;-57
2023/04/06 02:35:11;;;;;;;20.13;11.60;;;;;;;;;;5008732;28;20037;-56
2023/04/06 02:37:39;;;;;;;20.27;12.07;;;;;;;;;;5009615;28;20037;-58
2023/04/06 02:40:06;;;;;;;21.20;11.98;;;;;;;;;;5006672;28;20097;-57
2023/04/06 02:42:32;;;;;;;25.17;12.23;;;;;;;;;;5007281;28;20049;-57
2023/04/06 02:45:00;;;;;;;20.42;11.90;;;;;;;;;;5008365;28;20033;-57
2023/04/06 02:47:31;;;;;;;21.00;12.40;;;;;;;;;;5007474;28;20036;-57
2023/04/06 02:49:57;;;;;;;22.35;12.63;;;;;;;;;;5004171;28;20048;-57
2023/04/06 02:52:23;;;;;;;26.17;14.18;;;;;;;;;;5008497;28;20042;-58
2023/04/06 02:54:50;;;;;;;24.90;13.00;;;;;;;;;;5005463;28;20034;-57
2023/04/06 02:57:23;;;;;;;23.30;13.20;;;;;;;;;;5009616;28;20037;-57
2023/04/06 02:59:49;;;;;;;24.73;12.38;;;;;;;;;;5008119;28;20038;-57
2023/04/06 03:02:24;;;;;;;17.55;10.90;;;;;;;;;;5009484;28;20097;-58
2023/04/06 03:04:51;;;;;;;19.52;10.52;;;;;;;;;;5007780;28;20037;-57
2023/04/06 03:07:23;;;;;;;20.67;10.30;;;;;;;;;;5008845;28;20042;-58
2023/04/06 03:09:49;;;;;;;21.52;10.70;;;;;;;;;;5008104;28;20034;-57
2023/04/06 03:12:17;;;;;;;18.15;9.85;;;;;;;;;;5007874;28;20057;-56
2023/04/06 03:15:07;;;;;;;20.50;10.75;;;;;;;;;;5001434;28;20515;-57
2023/04/06 03:17:35;;;;;;;18.85;10.38;;;;;;;;;;5006748;28;20049;-58
2023/04/06 03:20:05;;;;;;;22.05;10.38;;;;;;;;;;5000269;28;20037;-58
2023/04/06 03:22:32;;;;;;;18.83;10.15;;;;;;;;;;5009658;28;20033;-57
2023/04/06 03:24:58;;;;;;;21.00;10.82;;;;;;;;;;5000846;28;20049;-56
2023/04/06 03:27:25;;;;;;;20.05;10.02;;;;;;;;;;5008652;28;20045;-56
2023/04/06 03:29:52;;;;;;;17.30;9.88;;;;;;;;;;4991359;28;20661;-57
2023/04/06 03:32:25;;;;;;;17.55;10.13;;;;;;;;;;5007109;28;20037;-57
2023/04/06 03:34:52;;;;;;;22.70;10.88;;;;;;;;;;5009049;28;20030;-56
2023/04/06 03:37:18;;;;;;;24.45;11.02;;;;;;;;;;5008869;28;20026;-58
2023/04/06 03:39:50;;;;;;;19.98;11.43;;;;;;;;;;5005626;28;20030;-56
2023/04/06 03:42:21;;;;;;;21.80;11.35;;;;;;;;;;5007820;28;20046;-57
2023/04/06 03:44:54;;;;;;;25.80;11.55;;;;;;;;;;5005358;28;20084;-56
2023/04/06 03:47:20;;;;;;;20.77;9.77;;;;;;;;;;5006410;28;20460;-57
2023/04/06 03:49:46;;;;;;;17.27;9.68;;;;;;;;;;5007502;28;20053;-57
2023/04/06 03:52:15;;;;;;;21.40;9.93;;;;;;;;;;5005008;28;20038;-56
2023/04/06 03:54:41;;;;;;;21.50;10.52;;;;;;;;;;5009261;28;20046;-57
2023/04/06 03:57:10;;;;;;;22.27;10.68;;;;;;;;;;5007875;28;20046;-56
2023/04/06 03:59:36;;;;;;;22.23;10.43;;;;;;;;;;5007626;28;20037;-57
2023/04/06 04:02:02;;;;;;;22.25;10.93;;;;;;;;;;5007471;28;20480;-58
2023/04/06 04:04:29;;;;;;;17.73;9.27;;;;;;;;;;5007751;28;20036;-56
2023/04/06 04:06:56;;;;;;;22.20;10.25;;;;;;;;;;5007869;28;20038;-57
2023/04/06 04:09:23;;;;;;;20.20;10.20;;;;;;;;;;5007174;28;20049;-56
2023/04/06 04:11:51;;;;;;;20.98;10.13;;;;;;;;;;5008258;28;20046;-56
2023/04/06 04:14:17;;;;;;;18.73;10.45;;;;;;;;;;5007961;28;20044;-56
2023/04/06 04:16:45;;;;;;;18.20;10.38;;;;;;;;;;5008108;28;20030;-57
2023/04/06 04:19:11;;;;;;;21.05;10.20;;;;;;;;;;5008581;28;20034;-56
2023/04/06 04:21:44;;;;;;;17.92;9.55;;;;;;;;;;5009749;28;20057;-56
2023/04/06 04:24:11;;;;;;;21.05;9.90;;;;;;;;;;5003791;28;20497;-57
2023/04/06 04:26:39;;;;;;;18.90;9.43;;;;;;;;;;5008044;28;20042;-57
2023/04/06 04:29:06;;;;;;;18.75;9.70;;;;;;;;;;5006224;28;20053;-56
2023/04/06 04:31:32;;;;;;;18.20;9.20;;;;;;;;;;4991004;28;20061;-57
2023/04/06 04:34:03;;;;;;;20.33;10.63;;;;;;;;;;5002627;28;20114;-56
2023/04/06 04:36:32;;;;;;;20.77;9.05;;;;;;;;;;5005796;28;20546;-56
2023/04/06 04:39:03;;;;;;;27.88;11.93;;;;;;;;;;5006596;28;20109;-56
2023/04/06 04:41:34;;;;;;;25.33;11.38;;;;;;;;;;4987494;28;20042;-56
2023/04/06 04:44:01;;;;;;;28.70;11.73;;;;;;;;;;5004569;28;20098;-55
2023/04/06 04:46:27;;;;;;;27.20;11.07;;;;;;;;;;5007119;28;20041;-57
2023/04/06 04:48:54;;;;;;;30.35;13.43;;;;;;;;;;5003919;28;20052;-58
2023/04/06 04:51:20;;;;;;;25.30;13.00;;;;;;;;;;5007042;28;20042;-56
2023/04/06 04:54:07;;;;;;;24.05;12.70;;;;;;;;;;5004599;28;20416;-57
2023/04/06 04:56:33;;;;;;;24.73;10.73;;;;;;;;;;5008503;28;20058;-57
2023/04/06 04:59:29;;;;;;;24.73;10.38;;;;;;;;;;5003181;28;20050;-57
2023/04/06 05:02:02;;;;;;;24.50;11.45;;;;;;;;;;5008084;28;20050;-56
2023/04/06 05:04:38;;;;;;;26.67;12.60;;;;;;;;;;5006823;28;20385;-57
2023/04/06 05:07:07;;;;;;;25.00;12.70;;;;;;;;;;5007898;28;20056;-56
2023/04/06 05:09:35;;;;;;;27.10;13.20;;;;;;;;;;4991325;28;20045;-57
2023/04/06 05:12:02;;;;;;;26.73;11.52;;;;;;;;;;4992852;28;20212;-56
2023/04/06 05:14:32;;;;;;;25.45;11.82;;;;;;;;;;5011096;28;20416;-57
2023/04/06 05:17:01;;;;;;;27.67;13.55;;;;;;;;;;5011701;28;20034;-56
2023/04/06 05:19:27;;;;;;;28.00;12.10;;;;;;;;;;5012251;28;20037;-56
2023/04/06 05:21:53;;;;;;;21.02;11.02;;;;;;;;;;5013159;28;20436;-58
2023/04/06 05:24:20;;;;;;;26.20;12.00;;;;;;;;;;5011107;28;20034;-56
2023/04/06 05:26:48;;;;;;;24.48;11.90;;;;;;;;;;5011094;28;20484;-56
2023/04/06 05:29:21;;;;;;;24.52;11.80;;;;;;;;;;5009789;28;20034;-56
2023/04/06 05:31:47;;;;;;;25.00;11.13;;;;;;;;;;5010718;28;20045;-57
2023/04/06 05:34:14;;;;;;;23.10;10.65;;;;;;;;;;5009960;28;20412;-55
2023/04/06 05:36:41;;;;;;;20.13;10.73;;;;;;;;;;5009986;28;20056;-55
2023/04/06 05:39:16;;;;;;;21.25;11.93;;;;;;;;;;5017589;28;20038;-55
2023/04/06 05:41:50;;;;;;;26.77;12.63;;;;;;;;;;5008910;28;20053;-56
2023/04/06 05:44:24;;;;;;;22.27;11.20;;;;;;;;;;5011382;28;20479;-56
2023/04/06 05:47:00;;;;;;;25.27;11.80;;;;;;;;;;5008888;28;20033;-56
2023/04/06 05:49:27;;;;;;;24.23;10.73;;;;;;;;;;5010717;28;20044;-56
2023/04/06 05:51:54;;;;;;;19.42;9.88;;;;;;;;;;5009343;28;20065;-56
2023/04/06 05:54:21;;;;;;;23.08;10.20;;;;;;;;;;5011176;28;20029;-56
2023/04/06 05:56:48;;;;;;;22.13;10.48;;;;;;;;;;5010802;28;20041;-57
2023/04/06 05:59:15;;;;;;;20.55;10.15;;;;;;;;;;5010717;28;20060;-56
2023/04/06 06:01:43;;;;;;;20.50;10.02;;;;;;;;;;5010594;28;20037;-57
2023/04/06 06:04:09;;;;;;;19.58;9.88;;;;;;;;;;5012146;28;20068;-57
2023/04/06 06:06:38;;;;;;;19.38;9.82;;;;;;;;;;5010986;28;20042;-56
2023/04/06 06:09:14;;;;;;;20.02;9.75;;;;;;;;;;5010913;28;20034;-57
2023/04/06 06:11:48;;;;;;;22.65;10.38;;;;;;;;;;5010461;28;20381;-57
2023/04/06 06:14:17;;;;;;;23.08;10.57;;;;;;;;;;5010395;28;20488;-57
2023/04/06 06:16:43;;;;;;;20.45;9.15;;;;;;;;;;5011068;28;20050;-56
2023/04/06 06:19:12;;;;;;;21.52;10.57;;;;;;;;;;4994078;28;20034;-57
2023/04/06 06:21:39;;;;;;;21.05;10.13;;;;;;;;;;5010837;28;20419;-56
2023/04/06 06:24:07;;;;;;;19.98;10.65;;;;;;;;;;4990745;28;20053;-56
2023/04/06 06:26:36;;;;;;;21.45;11.38;;;;;;;;;;5007283;28;20034;-56
2023/04/06 06:29:05;;;;;;;;;;;;;;;;;;5010630;28;20046;-57
2023/04/06 06:31:33;;;;;;;25.30;12.05;;;;;;;;;;5009758;28;19913;-56
2023/04/06 06:33:59;;;;;;;23.90;11.70;;;;;;;;;;5008468;28;20045;-56
2023/04/06 06:36:25;;;;;;;21.48;11.93;;;;;;;;;;5009040;28;20037;-56
2023/04/06 06:38:52;;;;;;;25.73;12.95;;;;;;;;;;5010189;28;20049;-56
2023/04/06 06:41:20;;;;;;;26.02;13.27;;;;;;;;;;5007269;28;20029;-57
2023/04/06 06:43:47;;;;;;;23.00;11.82;;;;;;;;;;5008334;28;20482;-57
2023/04/06 06:46:13;;;;;;;28.02;13.70;;;;;;;;;;5011897;28;20387;-56
2023/04/06 06:48:40;;;;;;;27.05;12.95;;;;;;;;;;5010207;28;20063;-56
2023/04/06 06:51:06;;;;;;;26.55;11.65;;;;;;;;;;5010052;28;20479;-56
2023/04/06 06:53:33;;;;;;;21.45;12.07;;;;;;;;;;5010635;28;20029;-56
2023/04/06 06:55:59;;;;;;;22.25;12.25;;;;;;;;;;5011232;28;20030;-57
2023/04/06 06:58:26;;;;;;;23.77;11.38;;;;;;;;;;5010322;28;20038;-57
2023/04/06 07:00:57;;;;;;;25.50;11.95;;;;;;;;;;5008247;28;20075;-57
2023/04/06 07:03:24;;;;;;;23.85;12.27;;;;;;;;;;5009752;28;20045;-56
2023/04/06 07:05:53;;;;;;;24.35;12.70;;;;;;;;;;5009778;28;20034;-56
2023/04/06 07:08:21;;;;;;;24.63;12.18;;;;;;;;;;5009813;28;20053;-56
2023/04/06 07:10:48;;;;;;;24.23;13.15;;;;;;;;;;5010586;28;20507;-55
2023/04/06 07:13:21;;;;;;;22.63;11.57;;;;;;;;;;5004831;28;20034;-56
2023/04/06 07:15:52;;;;;;;24.35;12.18;;;;;;;;;;5009772;28;20041;-57
2023/04/06 07:18:18;;;;;;;;;;;;;;;;;;4988960;28;20050;-57
2023/04/06 07:20:45;;;;;;;26.90;12.35;;;;;;;;;;5008846;28;19913;-57
2023/04/06 07:23:11;;;;;;;45.88;20.55;;;;;;;;;;5010042;28;20540;-56
2023/04/06 07:25:39;;;;;;;32.10;15.50;;;;;;;;;;5009047;28;20041;-56
2023/04/06 07:28:05;;;;;;;27.20;13.73;;;;;;;;;;5009228;28;20060;-56
2023/04/06 07:30:32;;;;;;;27.30;13.25;;;;;;;;;;5008236;28;20067;-56
2023/04/06 07:32:59;;;;;;;26.05;13.18;;;;;;;;;;5009690;28;20101;-57
2023/04/06 07:35:26;;;;;;;24.08;12.05;;;;;;;;;;5007344;28;20041;-57
2023/04/06 07:37:54;;;;;;;20.92;11.52;;;;;;;;;;5008447;28;20043;-56
2023/04/06 07:40:21;;;;;;;24.83;11.23;;;;;;;;;;5006273;28;20038;-57
2023/04/06 07:42:48;;;;;;;24.60;12.13;;;;;;;;;;5000368;28;20046;-56
2023/04/06 07:45:15;;;;;;;23.77;12.02;;;;;;;;;;5009167;28;20049;-56
2023/04/06 07:47:42;;;;;;;22.30;11.00;;;;;;;;;;5006347;28;20033;-56
2023/04/06 07:50:09;;;;;;;26.20;11.60;;;;;;;;;;5005303;28;20392;-56
2023/04/06 07:52:37;;;;;;;24.15;11.52;;;;;;;;;;5008685;28;20046;-57
2023/04/06 07:55:03;;;;;;;24.48;12.27;;;;;;;;;;5008642;28;20048;-56
2023/04/06 07:57:30;;;;;;;21.20;11.80;;;;;;;;;;5010163;28;20034;-56
2023/04/06 07:59:56;;;;;;;23.75;12.43;;;;;;;;;;5008937;28;20515;-56
2023/04/06 08:02:22;;;;;;;23.30;11.98;;;;;;;;;;5010360;28;20515;-56
2023/04/06 08:04:48;;;;;;;22.75;11.68;;;;;;;;;;5009639;28;20409;-57
2023/04/06 08:07:14;;;;;;;25.00;11.50;;;;;;;;;;5009753;28;20042;-57
2023/04/06 08:09:41;;;;;;;23.17;12.05;;;;;;;;;;5009005;28;20046;-56
2023/04/06 08:12:07;;;;;;;21.45;11.77;;;;;;;;;;5009737;28;20026;-56
2023/04/06 08:14:33;;;;;;;24.95;12.30;;;;;;;;;;5007664;28;20030;-57
2023/04/06 08:16:59;;;;;;;25.98;13.13;;;;;;;;;;5009172;28;20030;-57
2023/04/06 08:19:25;;;;;;;27.10;13.45;;;;;;;;;;5007452;28;20041;-56
2023/04/06 08:21:52;;;;;;;28.45;13.80;;;;;;;;;;5009607;28;20041;-57
2023/04/06 08:24:18;;;;;;;27.23;13.40;;;;;;;;;;5008929;28;20277;-57
2023/04/06 08:26:44;;;;;;;27.73;13.52;;;;;;;;;;5008615;28;20049;-57
2023/04/06 08:29:11;;;;;;;24.85;13.20;;;;;;;;;;5008845;28;20034;-57
2023/04/06 08:31:37;;;;;;;26.55;12.70;;;;;;;;;;5009949;28;20454;-56
2023/04/06 08:34:04;;;;;;;23.13;12.50;;;;;;;;;;5009523;28;20037;-56
2023/04/06 08:36:30;;;;;;;26.05;12.93;;;;;;;;;;5009518;28;20046;-56
2023/04/06 08:38:57;;;;;;;24.10;12.38;;;;;;;;;;5008923;28;20053;-57
2023/04/06 08:41:23;;;;;;;27.33;12.93;;;;;;;;;;5009414;28;20053;-57
2023/04/06 08:44:02;;;;;;;26.00;12.73;;;;;;;;;;5009171;28;20049;-57
2023/04/06 08:46:30;;;;;;;24.55;11.98;;;;;;;;;;5009525;28;20045;-56
2023/04/06 08:48:58;;;;;;;24.27;12.38;;;;;;;;;;5013683;28;20512;-56
2023/04/06 08:51:26;;;;;;;30.83;14.82;;;;;;;;;;5013308;28;20045;-56
2023/04/06 08:53:56;;;;;;;24.20;12.60;;;;;;;;;;5012228;28;20395;-56
2023/04/06 08:56:25;;;;;;;23.50;12.07;;;;;;;;;;5013526;28;20053;-58
2023/04/06 08:58:52;;;;;;;23.05;12.27;;;;;;;;;;5013157;28;20329;-57
2023/04/06 09:01:29;;;;;;;22.92;12.20;;;;;;;;;;5012655;28;20384;-56
2023/04/06 09:04:00;;;;;;;24.90;13.07;;;;;;;;;;5012181;28;20053;-56
2023/04/06 09:06:26;;;;;;;23.60;12.85;;;;;;;;;;5012458;28;20026;-55
2023/04/06 09:08:54;;;;;;;27.15;13.45;;;;;;;;;;5013528;28;20041;-56
2023/04/06 09:11:20;;;;;;;24.45;12.82;;;;;;;;;;5011771;28;20053;-57
2023/04/06 09:13:52;;;;;;;23.67;12.25;;;;;;;;;;5012957;28;20036;-57
2023/04/06 09:16:19;;;;;;;25.38;12.73;;;;;;;;;;5012316;28;20074;-57
2023/04/06 09:18:47;;;;;;;22.80;12.68;;;;;;;;;;5013160;28;20042;-56
2023/04/06 09:21:17;;;;;;;23.05;13.02;;;;;;;;;;5012840;28;20045;-57
2023/04/06 09:23:44;;;;;;;19.60;11.88;;;;;;;;;;5013225;28;20037;-57
2023/04/06 09:26:17;;;;;;;24.65;12.18;;;;;;;;;;5012614;28;20026;-57
2023/04/06 09:28:48;;;;;;;22.17;11.45;;;;;;;;;;5012346;28;20033;-57
2023/04/06 09:31:16;;;;;;;21.67;11.95;;;;;;;;;;5012163;28;20049;-56
2023/04/06 09:33:45;;;;;;;25.98;12.90;;;;;;;;;;5010797;28;20050;-57
2023/04/06 09:36:13;;;;;;;20.77;11.75;;;;;;;;;;5010169;28;20045;-57
2023/04/06 09:38:55;;;;;;;25.25;12.52;;;;;;;;;;5012633;28;20044;-57
2023/04/06 09:41:28;;;;;;;20.80;11.82;;;;;;;;;;5012379;28;20037;-58
2023/04/06 09:44:11;;;;;;;20.38;11.07;;;;;;;;;;5011624;28;20053;-57
2023/04/06 09:46:41;;;;;;;24.58;12.27;;;;;;;;;;5012860;28;20036;-57
2023/04/06 09:49:09;;;;;;;21.42;11.02;;;;;;;;;;5012210;28;20667;-57
2023/04/06 09:52:02;;;;;;;22.83;11.93;;;;;;;;;;5012720;28;20037;-57
2023/04/06 09:54:30;;;;;;;19.30;11.07;;;;;;;;;;5011426;28;20056;-58
2023/04/06 09:57:05;;;;;;;24.27;12.65;;;;;;;;;;5012515;28;20054;-58
2023/04/06 09:59:32;;;;;;;23.33;12.40;;;;;;;;;;5010983;28;20522;-57
2023/04/06 10:01:59;;;;;;;22.88;12.27;;;;;;;;;;5012803;28;20038;-57
2023/04/06 10:04:34;;;;;;;21.52;12.40;;;;;;;;;;5012150;28;20025;-57
2023/04/06 10:07:02;;;;;;;21.85;12.25;;;;;;;;;;5011165;28;20037;-57
2023/04/06 10:09:35;;;;;;;23.48;12.43;;;;;;;;;;5010378;28;20530;-57
2023/04/06 10:12:06;;;;;;;22.13;12.60;;;;;;;;;;5012642;28;20412;-56
2023/04/06 10:14:36;;;;;;;24.15;12.75;;;;;;;;;;5011806;28;20388;-58
2023/04/06 10:17:05;;;;;;;23.90;12.95;;;;;;;;;;5012388;28;20041;-58
2023/04/06 10:20:02;;;;;;;24.05;12.55;;;;;;;;;;5006661;28;20046;-57
2023/04/06 10:22:56;;;;;;;23.25;12.75;;;;;;;;;;5008258;28;20050;-57
2023/04/06 10:25:34;;;;;;;21.27;13.30;;;;;;;;;;5018154;28;20046;-57
2023/04/06 10:28:08;;;;;;;20.05;11.95;;;;;;;;;;5012052;28;20032;-58
2023/04/06 10:30:35;;;;;;;20.92;12.48;;;;;;;;;;5011202;28;20046;-58
2023/04/06 10:33:13;;;;;;;19.60;12.57;;;;;;;;;;5012149;28;20046;-58
2023/04/06 10:35:39;;;;;;;17.95;11.20;;;;;;;;;;5011613;28;20150;-57
2023/04/06 10:38:05;;;;;;;18.92;11.48;;;;;;;;;;5011183;28;20050;-57
2023/04/06 10:40:32;;;;;;;20.40;12.10;;;;;;;;;;4992932;28;20509;-57
2023/04/06 10:43:32;;;;;;;20.05;12.38;;;;;;;;;;5011133;28;20045;-58
2023/04/06 10:46:00;;;;;;;20.50;12.27;;;;;;;;;;5007034;28;20052;-58
2023/04/06 10:48:38;;;;;;;20.33;12.48;;;;;;;;;;5007247;28;20045;-57
2023/04/06 10:51:12;;;;;;;19.15;12.10;;;;;;;;;;5010894;28;20030;-58
2023/04/06 10:53:39;;;;;;;25.33;13.93;;;;;;;;;;5011623;28;20412;-57
2023/04/06 10:56:11;;;;;;;19.20;12.15;;;;;;;;;;5011179;28;20506;-58
2023/04/06 10:58:38;;;;;;;25.55;12.23;;;;;;;;;;5010683;28;20407;-58
2023/04/06 11:01:04;;;;;;;19.33;11.88;;;;;;;;;;5010495;28;20532;-58
2023/04/06 11:03:32;;;;;;;22.92;12.73;;;;;;;;;;5011163;28;20488;-57
2023/04/06 11:05:58;;;;;;;20.33;13.02;;;;;;;;;;5010976;28;20030;-58
2023/04/06 11:08:26;;;;;;;22.85;12.85;;;;;;;;;;5009059;28;20038;-58
2023/04/06 11:11:03;;;;;;;19.23;12.05;;;;;;;;;;5006097;28;20030;-58
2023/04/06 11:13:40;;;;;;;18.40;11.77;;;;;;;;;;5010565;28;20037;-58
2023/04/06 11:16:11;;;;;;;21.45;11.52;;;;;;;;;;5010969;28;20045;-58
2023/04/06 11:18:37;;;;;;;16.20;11.07;;;;;;;;;;5010215;28;20053;-58
2023/04/06 11:21:05;;;;;;;20.00;12.60;;;;;;;;;;5008723;28;20037;-58
2023/04/06 11:23:31;;;;;;;19.35;11.82;;;;;;;;;;5010789;28;20045;-58
2023/04/06 11:25:57;;;;;;;17.02;11.60;;;;;;;;;;5009147;28;20411;-58
2023/04/06 11:28:23;;;;;;;17.02;11.38;;;;;;;;;;5009018;28;20057;-58
2023/04/06 11:30:50;;;;;;;20.33;13.18;;;;;;;;;;5008244;28;20053;-58
2023/04/06 11:33:22;;;;;;;19.70;12.65;;;;;;;;;;5010290;28;20037;-57
2023/04/06 11:35:48;;;;;;;20.05;12.30;;;;;;;;;;5008131;28;20423;-58
2023/04/06 11:38:15;;;;;;;18.73;11.18;;;;;;;;;;5010382;28;20050;-58
2023/04/06 11:40:41;;;;;;;20.90;11.88;;;;;;;;;;5002777;28;20042;-58
2023/04/06 11:43:11;;;;;;;20.92;12.30;;;;;;;;;;5005922;28;20483;-59
2023/04/06 11:45:43;;;;;;;17.65;11.40;;;;;;;;;;5010073;28;20037;-57
2023/04/06 11:48:19;;;;;;;18.27;11.55;;;;;;;;;;5010404;28;20053;-57
2023/04/06 11:50:48;;;;;;;18.58;11.60;;;;;;;;;;5003671;28;20030;-58
2023/04/06 11:53:15;;;;;;;19.65;11.27;;;;;;;;;;5009690;28;20538;-58
2023/04/06 11:55:44;;;;;;;19.45;12.25;;;;;;;;;;5009573;28;20038;-58
2023/04/06 11:58:11;;;;;;;20.63;11.00;;;;;;;;;;5009720;28;20041;-58
2023/04/06 12:00:37;;;;;;;17.75;11.48;;;;;;;;;;5005837;28;20052;-58
2023/04/06 12:03:03;;;;;;;17.33;11.48;;;;;;;;;;5009014;28;20038;-59
2023/04/06 12:05:29;;;;;;;17.80;11.23;;;;;;;;;;5009960;28;20491;-58
2023/04/06 12:07:56;;;;;;;18.98;11.15;;;;;;;;;;5008735;28;20701;-58
2023/04/06 12:10:22;;;;;;;15.88;10.45;;;;;;;;;;5009443;28;20048;-58
2023/04/06 12:12:48;;;;;;;18.52;11.45;;;;;;;;;;5010138;28;20046;-58
2023/04/06 12:15:15;;;;;;;17.92;10.90;;;;;;;;;;5009287;28;20049;-59
2023/04/06 12:17:41;;;;;;;20.05;11.57;;;;;;;;;;5008579;28;20487;-58
2023/04/06 12:20:08;;;;;;;17.13;11.02;;;;;;;;;;5009182;28;20475;-59
2023/04/06 12:22:34;;;;;;;15.02;10.27;;;;;;;;;;5009939;28;20097;-58
2023/04/06 12:25:00;;;;;;;19.00;11.07;;;;;;;;;;5008251;28;20038;-58
2023/04/06 12:27:26;;;;;;;15.10;10.10;;;;;;;;;;5008769;28;20037;-58
2023/04/06 12:29:53;;;;;;;17.92;10.90;;;;;;;;;;5006929;28;20034;-57
2023/04/06 12:32:19;;;;;;;23.30;10.60;;;;;;;;;;5010425;28;20045;-58
2023/04/06 12:34:46;;;;;;;15.02;9.80;;;;;;;;;;5009100;28;20057;-59
2023/04/06 12:37:12;;;;;;;16.55;10.70;;;;;;;;;;5010037;28;20615;-59
2023/04/06 12:39:38;;;;;;;18.35;9.77;;;;;;;;;;5008599;28;20510;-58
2023/04/06 12:42:04;;;;;;;14.63;9.63;;;;;;;;;;5009715;28;20033;-59
2023/04/06 12:44:30;;;;;;;13.48;9.48;;;;;;;;;;5009042;28;20045;-59
2023/04/06 12:46:57;;;;;;;15.27;9.52;;;;;;;;;;5009502;28;20049;-59
2023/04/06 12:49:23;;;;;;;17.90;9.55;;;;;;;;;;5006131;28;20034;-59
2023/04/06 12:51:50;;;;;;;13.65;9.00;;;;;;;;;;5006763;28;20358;-59
2023/04/06 12:54:16;;;;;;;18.83;9.63;;;;;;;;;;5009257;28;20401;-59
2023/04/06 12:56:42;;;;;;;13.38;9.15;;;;;;;;;;5009201;28;20034;-59
2023/04/06 12:59:08;;;;;;;14.05;9.02;;;;;;;;;;5008153;28;20492;-59
2023/04/06 13:01:34;;;;;;;16.52;9.23;;;;;;;;;;5009017;28;20046;-58
2023/04/06 13:04:01;;;;;;;13.55;8.65;;;;;;;;;;5007739;28;20034;-58
2023/04/06 13:06:27;;;;;;;12.55;8.68;;;;;;;;;;5009566;28;20033;-58
2023/04/06 13:08:55;;;;;;;14.70;8.98;;;;;;;;;;5009445;28;20029;-58
2023/04/06 13:11:23;;;;;;;14.77;8.73;;;;;;;;;;5008227;28;20042;-58
2023/04/06 13:13:50;;;;;;;13.40;8.90;;;;;;;;;;5009086;28;20026;-58
2023/04/06 13:16:16;;;;;;;14.13;8.20;;;;;;;;;;5009227;28;20038;-59
2023/04/06 13:18:42;;;;;;;12.93;8.95;;;;;;;;;;5008776;28;20045;-57
2023/04/06 13:21:13;;;;;;;12.80;8.70;;;;;;;;;;5008930;28;20030;-58
2023/04/06 13:23:40;;;;;;;13.95;8.52;;;;;;;;;;5009373;28;20049;-58
2023/04/06 13:26:07;;;;;;;13.32;8.05;;;;;;;;;;5009249;28;20041;-58
2023/04/06 13:28:37;;;;;;;14.55;8.15;;;;;;;;;;5009084;28;20034;-58
2023/04/06 13:31:03;;;;;;;12.25;7.70;;;;;;;;;;5000780;28;20034;-59
2023/04/06 13:33:30;;;;;;;11.60;7.60;;;;;;;;;;5010728;28;20026;-58
2023/04/06 13:35:57;;;;;;;12.45;8.02;;;;;;;;;;5010141;28;20054;-59
2023/04/06 13:38:26;;;;;;;10.55;7.43;;;;;;;;;;5012832;28;20431;-58
2023/04/06 13:40:53;;;;;;;11.85;8.00;;;;;;;;;;5010487;28;20530;-58
2023/04/06 13:43:20;;;;;;;12.77;8.45;;;;;;;;;;5012241;28;20415;-58
2023/04/06 13:45:51;;;;;;;11.13;6.93;;;;;;;;;;5010660;28;20392;-57
2023/04/06 13:48:18;;;;;;;10.30;6.88;;;;;;;;;;5012599;28;20030;-58
2023/04/06 13:50:45;;;;;;;8.85;6.13;;;;;;;;;;5012061;28;20034;-58
2023/04/06 13:53:11;;;;;;;8.27;5.90;;;;;;;;;;5011153;28;20034;-58
2023/04/06 13:55:37;;;;;;;12.50;6.50;;;;;;;;;;5012181;28;20034;-58
2023/04/06 13:58:04;;;;;;;10.40;6.80;;;;;;;;;;5012101;28;20034;-58
2023/04/06 14:00:30;;;;;;;8.77;5.82;;;;;;;;;;5011616;28;20041;-58
2023/04/06 14:02:56;;;;;;;12.30;7.13;;;;;;;;;;5012081;28;20072;-58
2023/04/06 14:05:23;;;;;;;11.30;6.47;;;;;;;;;;5011885;28;20037;-60
2023/04/06 14:07:50;;;;;;;9.65;6.97;;;;;;;;;;5012245;28;20220;-59
2023/04/06 14:10:16;;;;;;;10.70;7.15;;;;;;;;;;5011468;28;20034;-58
2023/04/06 14:12:44;;;;;;;11.27;6.57;;;;;;;;;;5011935;28;20037;-59
2023/04/06 14:15:11;;;;;;;9.43;6.30;;;;;;;;;;5011434;28;20034;-59
2023/04/06 14:17:38;;;;;;;10.25;6.60;;;;;;;;;;5010499;28;20518;-59
2023/04/06 14:20:08;;;;;;;11.05;6.90;;;;;;;;;;5011158;28;20037;-58
2023/04/06 14:22:35;;;;;;;10.75;6.60;;;;;;;;;;5012315;28;20129;-58
2023/04/06 14:25:01;;;;;;;9.18;6.25;;;;;;;;;;5011467;28;20030;-58
2023/04/06 14:27:27;;;;;;;12.27;6.30;;;;;;;;;;5010432;28;20048;-58
2023/04/06 14:29:54;;;;;;;10.85;6.00;;;;;;;;;;5010586;28;20431;-58
2023/04/06 14:32:20;;;;;;;9.13;5.68;;;;;;;;;;5009643;28;20050;-58